Time;durP1;ratioP1;P1;durP2;ratioP2;P2;SDS_P1;SDS_P2;PMS_P1;PMS_P2;Temp;Humidity;BMP_temperature;BMP_pressure;BME280_temperature;BME280_humidity;BME280_pressure;Samples;Min_cycle;Max_cycle;Signal;HPM_P1;HPM_P2
2021/01/17 00:06:09;;;;;;;19.33;17.33;;;;;;;;;;4339432;28;20089;-57
2021/01/17 00:08:35;;;;;;;21.23;16.92;;;;;;;;;;4218824;34;20125;-56
2021/01/17 00:11:01;;;;;;;19.62;17.52;;;;;;;;;;4218327;34;20141;-57
2021/01/17 00:13:27;;;;;;;18.67;16.75;;;;;;;;;;4218815;34;20521;-57
2021/01/17 00:15:53;;;;;;;18.42;16.50;;;;;;;;;;4218639;34;20549;-58
2021/01/17 00:18:19;;;;;;;18.92;16.35;;;;;;;;;;4218838;34;20128;-58
2021/01/17 00:20:45;;;;;;;17.95;16.10;;;;;;;;;;4218873;34;20161;-58
2021/01/17 00:23:10;;;;;;;18.87;16.83;;;;;;;;;;4218606;34;20094;-58
2021/01/17 00:25:36;;;;;;;18.90;16.90;;;;;;;;;;4218556;34;20462;-57
2021/01/17 00:28:02;;;;;;;18.95;17.05;;;;;;;;;;4218646;34;20206;-58
2021/01/17 00:30:32;;;;;;;19.67;16.42;;;;;;;;;;4218968;34;20544;-58
2021/01/17 00:32:59;;;;;;;18.40;16.48;;;;;;;;;;4218595;34;20129;-57
2021/01/17 00:35:25;;;;;;;19.15;16.52;;;;;;;;;;4218546;34;20116;-58
2021/01/17 00:37:56;;;;;;;18.20;16.20;;;;;;;;;;4218897;34;20100;-58
2021/01/17 00:40:23;;;;;;;17.45;15.65;;;;;;;;;;4218629;34;20136;-57
2021/01/17 00:42:49;;;;;;;19.02;17.02;;;;;;;;;;4218801;34;20298;-57
2021/01/17 00:45:15;;;;;;;19.05;16.95;;;;;;;;;;4218373;34;20209;-57
2021/01/17 00:47:45;;;;;;;18.73;16.83;;;;;;;;;;4218479;34;20125;-57
2021/01/17 00:50:12;;;;;;;18.90;16.87;;;;;;;;;;4218461;34;20564;-57
2021/01/17 00:52:38;;;;;;;20.85;17.52;;;;;;;;;;4218417;34;20124;-58
2021/01/17 00:55:05;;;;;;;19.98;16.25;;;;;;;;;;4218416;34;20407;-57
2021/01/17 00:57:31;;;;;;;19.37;16.70;;;;;;;;;;4218362;34;20117;-59
2021/01/17 00:59:57;;;;;;;18.50;15.98;;;;;;;;;;4218208;34;20524;-58
2021/01/17 01:02:23;;;;;;;18.30;16.40;;;;;;;;;;4218278;34;20189;-58
2021/01/17 01:04:49;;;;;;;19.42;17.42;;;;;;;;;;4218048;34;20125;-58
2021/01/17 01:07:15;;;;;;;17.60;15.70;;;;;;;;;;4218279;34;20197;-58
2021/01/17 01:09:41;;;;;;;18.90;16.60;;;;;;;;;;4218220;34;20215;-58
2021/01/17 01:12:07;;;;;;;19.02;17.12;;;;;;;;;;4218195;34;20139;-58
2021/01/17 01:14:33;;;;;;;18.98;16.98;;;;;;;;;;4218172;34;20469;-58
2021/01/17 01:16:59;;;;;;;18.33;16.48;;;;;;;;;;4205289;34;20147;-57
2021/01/17 01:19:25;;;;;;;18.17;16.20;;;;;;;;;;4218138;34;20133;-58
2021/01/17 01:21:50;;;;;;;18.27;16.02;;;;;;;;;;4218178;34;20109;-57
2021/01/17 01:24:16;;;;;;;18.70;16.62;;;;;;;;;;4219690;34;20126;-58
2021/01/17 01:26:43;;;;;;;18.75;16.75;;;;;;;;;;4220436;34;20138;-58
2021/01/17 01:29:09;;;;;;;18.37;16.58;;;;;;;;;;4220088;34;20109;-58
2021/01/17 01:31:36;;;;;;;18.40;16.50;;;;;;;;;;4220187;34;20536;-58
2021/01/17 01:34:03;;;;;;;19.77;15.95;;;;;;;;;;4220090;34;20118;-58
2021/01/17 01:36:30;;;;;;;19.17;17.12;;;;;;;;;;4220322;34;20109;-58
2021/01/17 01:38:56;;;;;;;18.60;16.60;;;;;;;;;;4220059;34;20114;-58
2021/01/17 01:41:31;;;;;;;18.70;16.73;;;;;;;;;;4220287;34;20173;-58
2021/01/17 01:43:57;;;;;;;19.62;16.48;;;;;;;;;;4220034;34;20137;-58
2021/01/17 01:46:24;;;;;;;19.52;15.93;;;;;;;;;;4220059;34;20477;-58
2021/01/17 01:48:50;;;;;;;19.70;15.23;;;;;;;;;;4220078;34;20550;-58
2021/01/17 01:51:17;;;;;;;18.15;16.35;;;;;;;;;;4220186;34;20094;-58
2021/01/17 01:53:43;;;;;;;17.70;16.00;;;;;;;;;;4220014;34;20446;-57
2021/01/17 01:56:09;;;;;;;18.02;16.12;;;;;;;;;;4220072;34;20098;-58
2021/01/17 01:58:36;;;;;;;17.83;16.02;;;;;;;;;;4207003;34;20121;-58
2021/01/17 02:01:06;;;;;;;19.27;17.27;;;;;;;;;;4219834;34;20157;-58
2021/01/17 02:03:32;;;;;;;18.77;16.87;;;;;;;;;;4219985;34;20093;-58
2021/01/17 02:05:58;;;;;;;18.62;16.70;;;;;;;;;;4219966;34;20186;-58
2021/01/17 02:08:55;;;;;;;19.42;17.37;;;;;;;;;;4207054;34;20090;-58
2021/01/17 02:11:59;;;;;;;18.73;16.60;;;;;;;;;;4219861;34;20552;-58
2021/01/17 02:14:37;;;;;;;18.67;16.87;;;;;;;;;;4219837;34;20198;-58
2021/01/17 02:17:05;;;;;;;18.20;16.30;;;;;;;;;;4219891;34;20164;-58
2021/01/17 02:19:35;;;;;;;20.08;17.73;;;;;;;;;;4219813;34;20102;-58
2021/01/17 02:22:01;;;;;;;27.30;16.60;;;;;;;;;;4207237;34;20192;-58
2021/01/17 02:24:36;;;;;;;19.30;17.40;;;;;;;;;;4206906;34;20105;-58
2021/01/17 02:27:02;;;;;;;17.75;15.95;;;;;;;;;;4206826;34;20124;-58
2021/01/17 02:29:28;;;;;;;19.02;17.12;;;;;;;;;;4219883;34;20133;-58
2021/01/17 02:31:56;;;;;;;20.25;18.20;;;;;;;;;;4206782;34;20191;-58
2021/01/17 02:34:24;;;;;;;18.33;16.50;;;;;;;;;;4194829;34;20220;-58
2021/01/17 02:37:04;;;;;;;20.55;16.40;;;;;;;;;;4206779;34;20108;-58
2021/01/17 02:39:50;;;;;;;17.85;16.15;;;;;;;;;;4206680;34;20141;-57
2021/01/17 02:42:16;;;;;;;19.23;17.42;;;;;;;;;;4207168;34;20101;-58
2021/01/17 02:44:42;;;;;;;17.77;15.98;;;;;;;;;;4206589;34;20535;-58
2021/01/17 02:47:08;;;;;;;18.33;16.45;;;;;;;;;;4219565;34;20541;-58
2021/01/17 02:49:34;;;;;;;19.00;17.00;;;;;;;;;;4219408;34;20117;-58
2021/01/17 02:52:02;;;;;;;21.45;17.52;;;;;;;;;;4219482;34;20541;-58
2021/01/17 02:54:34;;;;;;;19.23;17.23;;;;;;;;;;4206778;34;20144;-58
2021/01/17 02:57:07;;;;;;;18.40;16.55;;;;;;;;;;4219607;34;20125;-57
2021/01/17 02:59:34;;;;;;;20.02;17.48;;;;;;;;;;4219665;34;20434;-58
2021/01/17 03:02:02;;;;;;;18.73;15.32;;;;;;;;;;4219650;34;20124;-59
2021/01/17 03:04:59;;;;;;;18.05;16.30;;;;;;;;;;4219211;34;20128;-58
2021/01/17 03:07:27;;;;;;;19.87;17.73;;;;;;;;;;4212174;34;20221;-58
2021/01/17 03:09:53;;;;;;;18.85;16.77;;;;;;;;;;4195039;34;20633;-57
2021/01/17 03:12:18;;;;;;;17.98;16.17;;;;;;;;;;4219279;34;20137;-58
2021/01/17 03:14:44;;;;;;;19.08;17.20;;;;;;;;;;4219207;34;20121;-58
2021/01/17 03:17:11;;;;;;;17.52;15.63;;;;;;;;;;4194879;34;20490;-58
2021/01/17 03:19:37;;;;;;;20.42;17.35;;;;;;;;;;4219228;34;20125;-58
2021/01/17 03:22:03;;;;;;;20.17;16.80;;;;;;;;;;4219233;34;20100;-58
2021/01/17 03:24:28;;;;;;;20.40;18.15;;;;;;;;;;4219134;34;20105;-58
2021/01/17 03:26:54;;;;;;;23.73;17.65;;;;;;;;;;4219136;34;20509;-58
2021/01/17 03:29:20;;;;;;;18.77;16.77;;;;;;;;;;4219043;34;20180;-58
2021/01/17 03:31:46;;;;;;;19.12;17.23;;;;;;;;;;4219133;34;20216;-59
2021/01/17 03:34:12;;;;;;;18.95;16.95;;;;;;;;;;4219033;34;20125;-59
2021/01/17 03:36:38;;;;;;;18.48;16.50;;;;;;;;;;4206227;34;20583;-59
2021/01/17 03:39:04;;;;;;;18.70;16.65;;;;;;;;;;4219297;34;20089;-59
2021/01/17 03:41:30;;;;;;;19.48;17.48;;;;;;;;;;4218992;34;20102;-59
2021/01/17 03:43:56;;;;;;;19.15;17.15;;;;;;;;;;4206052;34;20125;-58
2021/01/17 03:46:22;;;;;;;18.35;15.98;;;;;;;;;;4218393;34;20465;-59
2021/01/17 03:48:49;;;;;;;17.95;16.08;;;;;;;;;;4219025;34;20188;-59
2021/01/17 03:51:15;;;;;;;18.37;16.58;;;;;;;;;;4218948;34;20108;-59
2021/01/17 03:53:41;;;;;;;19.73;16.25;;;;;;;;;;4218932;34;20113;-59
2021/01/17 03:56:06;;;;;;;19.75;17.50;;;;;;;;;;4219095;34;20249;-59
2021/01/17 03:58:32;;;;;;;19.62;17.20;;;;;;;;;;4219139;34;20113;-58
2021/01/17 04:00:58;;;;;;;18.65;16.35;;;;;;;;;;4219008;34;20109;-59
2021/01/17 04:03:24;;;;;;;18.23;16.33;;;;;;;;;;4218742;34;20117;-59
2021/01/17 04:05:50;;;;;;;22.73;17.27;;;;;;;;;;4218402;34;20129;-60
2021/01/17 04:08:16;;;;;;;18.25;16.45;;;;;;;;;;4218997;34;20110;-59
2021/01/17 04:10:42;;;;;;;19.87;17.23;;;;;;;;;;4218885;34;20586;-60
2021/01/17 04:13:08;;;;;;;18.90;16.35;;;;;;;;;;4218672;34;20197;-58
2021/01/17 04:15:34;;;;;;;17.98;16.08;;;;;;;;;;4218552;34;20116;-57
2021/01/17 04:17:59;;;;;;;19.95;17.37;;;;;;;;;;4218969;34;20182;-58
2021/01/17 04:20:26;;;;;;;18.17;16.27;;;;;;;;;;4218505;34;20137;-61
2021/01/17 04:23:01;;;;;;;18.40;16.42;;;;;;;;;;4218283;34;20204;-64
2021/01/17 04:25:29;;;;;;;17.87;15.95;;;;;;;;;;4218583;34;20505;-60
2021/01/17 04:27:56;;;;;;;18.23;16.33;;;;;;;;;;4218706;34;20102;-59
2021/01/17 04:30:22;;;;;;;19.45;17.37;;;;;;;;;;4218573;34;20132;-59
2021/01/17 04:32:49;;;;;;;18.98;17.00;;;;;;;;;;4218800;34;20120;-59
2021/01/17 04:35:15;;;;;;;18.40;16.48;;;;;;;;;;4218479;34;20221;-60
2021/01/17 04:37:41;;;;;;;18.62;16.60;;;;;;;;;;4218508;34;20127;-59
2021/01/17 04:40:07;;;;;;;18.65;16.67;;;;;;;;;;4218535;34;20534;-58
2021/01/17 04:42:37;;;;;;;18.75;16.10;;;;;;;;;;4218494;34;20469;-57
2021/01/17 04:45:06;;;;;;;19.15;16.00;;;;;;;;;;4205711;34;20090;-59
2021/01/17 04:47:33;;;;;;;19.62;17.60;;;;;;;;;;4218696;34;20101;-59
2021/01/17 04:50:01;;;;;;;17.80;16.10;;;;;;;;;;4205407;34;20097;-59
2021/01/17 04:52:28;;;;;;;18.23;16.33;;;;;;;;;;4218290;34;20110;-60
2021/01/17 04:54:54;;;;;;;16.95;15.15;;;;;;;;;;4218250;34;20117;-58
2021/01/17 04:57:26;;;;;;;18.33;16.42;;;;;;;;;;4219209;34;20212;-59
2021/01/17 05:00:03;;;;;;;17.90;16.10;;;;;;;;;;4207227;34;20228;-59
2021/01/17 05:02:35;;;;;;;17.23;15.43;;;;;;;;;;4219925;34;20189;-59
2021/01/17 05:05:22;;;;;;;18.80;16.35;;;;;;;;;;4220084;34;20187;-59
2021/01/17 05:08:08;;;;;;;18.92;16.33;;;;;;;;;;4220605;34;20113;-59
2021/01/17 05:10:38;;;;;;;18.58;16.67;;;;;;;;;;4219976;34;20134;-58
2021/01/17 05:13:17;;;;;;;18.80;16.90;;;;;;;;;;4220460;34;20132;-58
2021/01/17 05:15:43;;;;;;;18.75;16.83;;;;;;;;;;4220186;34;20105;-59
2021/01/17 05:18:10;;;;;;;18.73;16.75;;;;;;;;;;4220221;34;20124;-59
2021/01/17 05:20:36;;;;;;;19.67;17.77;;;;;;;;;;4220119;34;20221;-58
2021/01/17 05:23:02;;;;;;;19.67;16.62;;;;;;;;;;4220304;34;20121;-59
2021/01/17 05:25:28;;;;;;;18.98;16.92;;;;;;;;;;4207041;34;20105;-59
2021/01/17 05:27:54;;;;;;;19.27;17.02;;;;;;;;;;4220228;34;20212;-59
2021/01/17 05:30:21;;;;;;;18.30;16.48;;;;;;;;;;4220318;34;20152;-60
2021/01/17 05:32:50;;;;;;;19.10;17.02;;;;;;;;;;4219992;34;20149;-60
2021/01/17 05:35:20;;;;;;;18.55;16.65;;;;;;;;;;4220299;34;20139;-58
2021/01/17 05:37:53;;;;;;;19.40;17.33;;;;;;;;;;4220307;34;20102;-58
2021/01/17 05:40:19;;;;;;;19.10;17.10;;;;;;;;;;4220284;34;20309;-58
2021/01/17 05:42:45;;;;;;;19.67;17.40;;;;;;;;;;4219963;34;20197;-57
2021/01/17 05:45:14;;;;;;;19.85;17.75;;;;;;;;;;4219976;34;20536;-58
2021/01/17 05:47:40;;;;;;;20.15;18.00;;;;;;;;;;4220168;34;20109;-60
2021/01/17 05:50:08;;;;;;;19.40;17.37;;;;;;;;;;4219970;34;20110;-59
2021/01/17 05:52:34;;;;;;;20.02;17.92;;;;;;;;;;4219890;34;20212;-59
2021/01/17 05:55:00;;;;;;;18.85;16.95;;;;;;;;;;4207166;34;20128;-59
2021/01/17 05:57:26;;;;;;;18.20;16.40;;;;;;;;;;4220338;34;20124;-59
2021/01/17 05:59:52;;;;;;;18.92;16.23;;;;;;;;;;4219823;34;20117;-60
2021/01/17 06:02:19;;;;;;;20.15;17.10;;;;;;;;;;4207209;34;20117;-60
2021/01/17 06:04:49;;;;;;;19.95;17.87;;;;;;;;;;4219773;34;20124;-59
2021/01/17 06:07:16;;;;;;;19.62;16.75;;;;;;;;;;4190782;34;20110;-59
2021/01/17 06:09:43;;;;;;;18.83;16.85;;;;;;;;;;4191627;34;20523;-59
2021/01/17 06:12:09;;;;;;;21.85;19.60;;;;;;;;;;4190776;34;20672;-59
2021/01/17 06:14:35;;;;;;;19.05;17.05;;;;;;;;;;4192089;34;20141;-59
2021/01/17 06:17:02;;;;;;;19.52;17.50;;;;;;;;;;4192188;34;20465;-60
2021/01/17 06:19:38;;;;;;;19.60;16.87;;;;;;;;;;4192006;34;20518;-59
2021/01/17 06:22:07;;;;;;;18.62;16.75;;;;;;;;;;4192154;34;20121;-60
2021/01/17 06:24:40;;;;;;;19.65;17.65;;;;;;;;;;4191919;34;20083;-59
2021/01/17 06:27:07;;;;;;;18.90;16.20;;;;;;;;;;4191907;34;20130;-60
2021/01/17 06:29:36;;;;;;;19.10;16.77;;;;;;;;;;4192148;34;20597;-60
2021/01/17 06:32:12;;;;;;;18.40;16.40;;;;;;;;;;4191967;34;20198;-59
2021/01/17 06:34:45;;;;;;;;;;;;;;;;;;4192442;34;20125;-58
2021/01/17 06:37:11;;;;;;;20.62;17.20;;;;;;;;;;4192096;34;20061;-58
2021/01/17 06:39:44;;;;;;;19.55;16.75;;;;;;;;;;4191822;34;20537;-60
2021/01/17 06:42:12;;;;;;;19.25;17.20;;;;;;;;;;4192172;34;20189;-59
2021/01/17 06:44:38;;;;;;;19.30;17.23;;;;;;;;;;4192079;34;20201;-60
2021/01/17 06:47:03;;;;;;;18.70;16.70;;;;;;;;;;4190379;34;20197;-60
2021/01/17 06:49:31;;;;;;;18.55;16.73;;;;;;;;;;4191793;34;20122;-59
2021/01/17 06:51:57;;;;;;;17.95;16.17;;;;;;;;;;4190298;34;20201;-59
2021/01/17 06:54:53;;;;;;;18.80;16.48;;;;;;;;;;4191669;34;20110;-59
2021/01/17 06:57:20;;;;;;;18.33;16.50;;;;;;;;;;4187668;34;20122;-59
2021/01/17 06:59:47;;;;;;;18.20;15.73;;;;;;;;;;4191917;34;20145;-59
2021/01/17 07:02:13;;;;;;;17.55;15.70;;;;;;;;;;4191718;34;20109;-59
2021/01/17 07:04:41;;;;;;;37.17;17.33;;;;;;;;;;4191470;34;20189;-59
2021/01/17 07:07:16;;;;;;;18.27;16.37;;;;;;;;;;4218305;34;20125;-59
2021/01/17 07:10:05;;;;;;;20.58;18.45;;;;;;;;;;4219579;34;20113;-58
2021/01/17 07:12:54;;;;;;;21.15;18.40;;;;;;;;;;4219299;34;20537;-58
2021/01/17 07:15:27;;;;;;;19.95;17.87;;;;;;;;;;4219232;34;20109;-59
2021/01/17 07:18:09;;;;;;;18.65;16.75;;;;;;;;;;4206335;34;20141;-58
2021/01/17 07:20:45;;;;;;;19.77;17.65;;;;;;;;;;4218304;34;20148;-58
2021/01/17 07:23:12;;;;;;;19.45;17.23;;;;;;;;;;4219136;34;20204;-59
2021/01/17 07:25:40;;;;;;;17.67;15.88;;;;;;;;;;4219042;34;20121;-59
2021/01/17 07:28:10;;;;;;;17.42;15.48;;;;;;;;;;4219240;34;20124;-58
2021/01/17 07:30:35;;;;;;;19.85;16.40;;;;;;;;;;4219320;34;20121;-59
2021/01/17 07:33:06;;;;;;;19.30;15.95;;;;;;;;;;4219022;34;20517;-59
2021/01/17 07:35:39;;;;;;;17.45;15.32;;;;;;;;;;4218984;34;20113;-58
2021/01/17 07:38:19;;;;;;;19.95;17.95;;;;;;;;;;4206119;34;20185;-58
2021/01/17 07:40:50;;;;;;;19.30;17.20;;;;;;;;;;4219034;34;20175;-58
2021/01/17 07:43:43;;;;;;;18.87;16.90;;;;;;;;;;4219025;34;20165;-58
2021/01/17 07:46:13;;;;;;;22.77;17.55;;;;;;;;;;4216109;34;20125;-58
2021/01/17 07:48:39;;;;;;;16.77;15.07;;;;;;;;;;4206087;34;20596;-58
2021/01/17 07:51:10;;;;;;;16.60;14.90;;;;;;;;;;4218941;34;20550;-57
2021/01/17 07:53:39;;;;;;;17.50;14.80;;;;;;;;;;4206277;34;20117;-58
2021/01/17 07:56:09;;;;;;;17.45;15.63;;;;;;;;;;4218761;34;20105;-59
2021/01/17 07:58:42;;;;;;;17.23;15.52;;;;;;;;;;4218922;34;20089;-59
2021/01/17 08:01:39;;;;;;;19.90;14.50;;;;;;;;;;4218902;34;20121;-59
2021/01/17 08:04:05;;;;;;;15.75;14.13;;;;;;;;;;4219000;34;20189;-59
2021/01/17 08:06:34;;;;;;;16.80;15.02;;;;;;;;;;4218502;34;20118;-58
2021/01/17 08:09:07;;;;;;;16.75;15.13;;;;;;;;;;4218837;34;20109;-59
2021/01/17 08:11:51;;;;;;;16.77;14.98;;;;;;;;;;4218684;34;20136;-59
2021/01/17 08:14:34;;;;;;;17.08;15.25;;;;;;;;;;4218652;34;20133;-59
2021/01/17 08:17:19;;;;;;;17.45;15.20;;;;;;;;;;4218608;34;20582;-57
2021/01/17 08:19:54;;;;;;;21.37;15.23;;;;;;;;;;4218631;34;20419;-59
2021/01/17 08:22:22;;;;;;;17.62;15.65;;;;;;;;;;4218482;34;20120;-58
2021/01/17 08:24:49;;;;;;;16.60;14.85;;;;;;;;;;4218505;34;20108;-58
2021/01/17 08:27:36;;;;;;;16.27;14.43;;;;;;;;;;4218495;34;20193;-58
2021/01/17 08:30:08;;;;;;;16.67;14.87;;;;;;;;;;4218438;34;20117;-59
2021/01/17 08:32:44;;;;;;;16.80;13.85;;;;;;;;;;4218530;34;20155;-58
2021/01/17 08:35:18;;;;;;;15.93;14.23;;;;;;;;;;4218430;34;20109;-58
2021/01/17 08:38:13;;;;;;;16.90;15.20;;;;;;;;;;4218466;34;20125;-59
2021/01/17 08:40:46;;;;;;;15.82;14.15;;;;;;;;;;4218385;34;20135;-57
2021/01/17 08:43:13;;;;;;;18.05;15.07;;;;;;;;;;4215830;34;20190;-58
2021/01/17 08:45:41;;;;;;;16.52;13.90;;;;;;;;;;4196901;34;20125;-57
2021/01/17 08:48:15;;;;;;;17.25;15.30;;;;;;;;;;4199117;34;20098;-60
2021/01/17 08:50:42;;;;;;;16.60;14.90;;;;;;;;;;4190665;34;20118;-55
2021/01/17 08:53:11;;;;;;;16.23;13.80;;;;;;;;;;4200098;34;20195;-58
2021/01/17 08:55:37;;;;;;;17.00;14.85;;;;;;;;;;4204387;34;20121;-57
2021/01/17 08:58:03;;;;;;;15.57;13.98;;;;;;;;;;4204370;34;20516;-58
2021/01/17 09:00:49;;;;;;;16.42;14.57;;;;;;;;;;4201502;34;20101;-59
2021/01/17 09:03:29;;;;;;;16.98;14.80;;;;;;;;;;4190505;34;20095;-59
2021/01/17 09:05:56;;;;;;;17.30;15.60;;;;;;;;;;4190399;34;20125;-60
2021/01/17 09:08:22;;;;;;;17.58;14.45;;;;;;;;;;4177553;34;20102;-59
2021/01/17 09:10:48;;;;;;;19.60;14.52;;;;;;;;;;4177631;34;20086;-59
2021/01/17 09:13:27;;;;;;;16.10;14.48;;;;;;;;;;4177613;34;20112;-59
2021/01/17 09:16:04;;;;;;;16.27;14.48;;;;;;;;;;4190311;34;20202;-59
2021/01/17 09:18:37;;;;;;;17.05;14.43;;;;;;;;;;4192308;34;20134;-57
2021/01/17 09:21:03;;;;;;;15.55;13.30;;;;;;;;;;4200736;34;20170;-61
2021/01/17 09:23:29;;;;;;;16.95;15.15;;;;;;;;;;4201968;34;20224;-59
2021/01/17 09:25:59;;;;;;;16.20;14.50;;;;;;;;;;4196776;34;20145;-59
2021/01/17 09:28:28;;;;;;;16.90;15.20;;;;;;;;;;4192380;34;20091;-60
2021/01/17 09:30:55;;;;;;;15.82;14.13;;;;;;;;;;4202902;34;20570;-58
2021/01/17 09:33:21;;;;;;;16.60;14.80;;;;;;;;;;4201427;34;20099;-58
2021/01/17 09:35:47;;;;;;;17.60;15.07;;;;;;;;;;4189864;34;20453;-50
2021/01/17 09:38:15;;;;;;;19.30;16.23;;;;;;;;;;4190321;34;20106;-56
2021/01/17 09:40:42;;;;;;;17.08;14.98;;;;;;;;;;4190257;34;20134;-52
2021/01/17 09:43:08;;;;;;;16.62;14.82;;;;;;;;;;4177298;34;20105;-53
2021/01/17 09:45:34;;;;;;;17.98;15.77;;;;;;;;;;4179402;34;20109;-54
2021/01/17 09:48:00;;;;;;;16.02;14.15;;;;;;;;;;4192187;34;20159;-55
2021/01/17 09:50:38;;;;;;;18.60;15.90;;;;;;;;;;4192270;34;20098;-60
2021/01/17 09:53:10;;;;;;;17.90;15.50;;;;;;;;;;4192233;34;20552;-54
2021/01/17 09:55:40;;;;;;;16.58;14.87;;;;;;;;;;4192092;34;20219;-53
2021/01/17 09:58:10;;;;;;;17.70;14.60;;;;;;;;;;4192161;34;20531;-52
2021/01/17 10:00:37;;;;;;;16.73;14.93;;;;;;;;;;4191954;34;20128;-51
2021/01/17 10:03:16;;;;;;;16.05;14.25;;;;;;;;;;4179544;34;20122;-48
2021/01/17 10:05:43;;;;;;;20.70;15.35;;;;;;;;;;4191727;34;20091;-51
2021/01/17 10:08:13;;;;;;;16.52;14.90;;;;;;;;;;4192341;34;20237;-51
2021/01/17 10:10:40;;;;;;;17.70;14.93;;;;;;;;;;4191978;34;20144;-55
2021/01/17 10:13:07;;;;;;;16.35;14.65;;;;;;;;;;4192171;34;20098;-55
2021/01/17 10:15:33;;;;;;;17.95;15.35;;;;;;;;;;4191960;34;20409;-52
2021/01/17 10:17:59;;;;;;;16.05;11.23;;;;;;;;;;4179367;34;20553;-53
2021/01/17 10:20:30;;;;;;;18.33;15.60;;;;;;;;;;4192207;34;20111;-54
2021/01/17 10:23:18;;;;;;;17.52;15.63;;;;;;;;;;4192325;34;20136;-51
2021/01/17 10:25:44;;;;;;;19.00;16.20;;;;;;;;;;4191906;34;20136;-53
2021/01/17 10:28:11;;;;;;;16.70;15.00;;;;;;;;;;4191950;34;20118;-51
2021/01/17 10:30:38;;;;;;;18.92;15.77;;;;;;;;;;4179031;34;20134;-52
2021/01/17 10:33:05;;;;;;;20.42;15.95;;;;;;;;;;4191797;34;20102;-53
2021/01/17 10:35:33;;;;;;;19.42;15.93;;;;;;;;;;4191758;34;20094;-55
2021/01/17 10:38:02;;;;;;;16.60;14.55;;;;;;;;;;4191727;34;20450;-52
2021/01/17 10:40:28;;;;;;;20.52;16.08;;;;;;;;;;4178971;34;20114;-55
2021/01/17 10:42:57;;;;;;;17.62;15.82;;;;;;;;;;4191957;34;20443;-52
2021/01/17 10:45:24;;;;;;;17.60;15.75;;;;;;;;;;4198417;34;20102;-52
2021/01/17 10:48:05;;;;;;;16.65;14.63;;;;;;;;;;4199722;34;20192;-52
2021/01/17 10:50:35;;;;;;;15.98;13.77;;;;;;;;;;4192036;34;20133;-52
2021/01/17 10:53:13;;;;;;;15.70;13.88;;;;;;;;;;4178839;34;20162;-52
2021/01/17 10:55:40;;;;;;;18.05;14.60;;;;;;;;;;4181672;34;20109;-51
2021/01/17 10:58:06;;;;;;;14.77;13.13;;;;;;;;;;4192609;34;20522;-56
2021/01/17 11:00:32;;;;;;;18.98;14.60;;;;;;;;;;4190201;34;20193;-52
2021/01/17 11:03:03;;;;;;;17.58;15.65;;;;;;;;;;4179032;34;20125;-52
2021/01/17 11:05:29;;;;;;;17.90;15.20;;;;;;;;;;4191473;34;20111;-53
2021/01/17 11:07:55;;;;;;;16.87;15.07;;;;;;;;;;4178875;34;20110;-51
2021/01/17 11:10:21;;;;;;;17.20;14.23;;;;;;;;;;4191666;34;20114;-51
2021/01/17 11:12:47;;;;;;;16.20;14.40;;;;;;;;;;4191665;34;20546;-51
2021/01/17 11:15:19;;;;;;;16.67;14.50;;;;;;;;;;4191436;34;20124;-49
2021/01/17 11:17:54;;;;;;;16.70;14.23;;;;;;;;;;4197445;34;20446;-50
2021/01/17 11:20:36;;;;;;;17.60;14.25;;;;;;;;;;4205299;34;20094;-49
2021/01/17 11:23:03;;;;;;;17.27;14.18;;;;;;;;;;4205161;34;20121;-48
2021/01/17 11:25:30;;;;;;;16.15;14.45;;;;;;;;;;4205177;34;20540;-49
2021/01/17 11:27:57;;;;;;;16.30;14.52;;;;;;;;;;4205307;34;20114;-51
2021/01/17 11:30:27;;;;;;;18.85;14.32;;;;;;;;;;4205299;34;20108;-49
2021/01/17 11:33:04;;;;;;;17.98;15.02;;;;;;;;;;4205471;34;20110;-48
2021/01/17 11:35:30;;;;;;;16.55;14.85;;;;;;;;;;4205134;34;20204;-51
2021/01/17 11:37:57;;;;;;;16.62;14.15;;;;;;;;;;4205200;34;20121;-52
2021/01/17 11:40:23;;;;;;;19.17;15.52;;;;;;;;;;4205342;34;20458;-51
2021/01/17 11:42:49;;;;;;;18.48;15.02;;;;;;;;;;4205115;34;20201;-52
2021/01/17 11:45:15;;;;;;;17.12;15.07;;;;;;;;;;4205042;34;20113;-54
2021/01/17 11:47:43;;;;;;;21.85;15.70;;;;;;;;;;4205230;34;20141;-54
2021/01/17 11:50:16;;;;;;;16.42;14.68;;;;;;;;;;4205037;34;20110;-51
2021/01/17 11:52:43;;;;;;;17.15;14.87;;;;;;;;;;4205379;34;20128;-52
2021/01/17 11:55:10;;;;;;;17.42;15.25;;;;;;;;;;4192335;34;20106;-49
2021/01/17 11:57:36;;;;;;;18.55;15.07;;;;;;;;;;4205130;34;20129;-53
2021/01/17 12:00:05;;;;;;;16.58;14.80;;;;;;;;;;4204459;34;20188;-53
2021/01/17 12:02:38;;;;;;;20.98;16.25;;;;;;;;;;4204225;34;20091;-51
2021/01/17 12:05:05;;;;;;;18.48;14.85;;;;;;;;;;4204067;34;20140;-58
2021/01/17 12:07:31;;;;;;;18.60;14.20;;;;;;;;;;4191228;34;20125;-58
2021/01/17 12:10:23;;;;;;;17.80;15.52;;;;;;;;;;4204907;34;20118;-57
2021/01/17 12:12:49;;;;;;;18.02;15.55;;;;;;;;;;4202222;34;20126;-59
2021/01/17 12:15:15;;;;;;;18.25;15.45;;;;;;;;;;4204800;34;20236;-57
2021/01/17 12:17:41;;;;;;;18.50;15.50;;;;;;;;;;4204747;34;20193;-57
2021/01/17 12:20:07;;;;;;;17.70;14.55;;;;;;;;;;4192523;34;20106;-56
2021/01/17 12:22:33;;;;;;;18.58;15.68;;;;;;;;;;4191443;34;20117;-52
2021/01/17 12:24:59;;;;;;;21.45;19.20;;;;;;;;;;4190819;34;20528;-51
2021/01/17 12:27:25;;;;;;;22.98;20.20;;;;;;;;;;4191183;34;20114;-50
2021/01/17 12:29:51;;;;;;;30.58;24.70;;;;;;;;;;4190922;34;20110;-52
2021/01/17 12:32:17;;;;;;;26.75;23.58;;;;;;;;;;4191022;34;20114;-52
2021/01/17 12:34:42;;;;;;;27.75;23.58;;;;;;;;;;4191077;34;20133;-49
2021/01/17 12:37:08;;;;;;;23.55;17.67;;;;;;;;;;4191180;34;20125;-53
2021/01/17 12:39:34;;;;;;;19.77;17.45;;;;;;;;;;4190868;34;20126;-51
2021/01/17 12:42:00;;;;;;;19.35;16.73;;;;;;;;;;4190750;34;20110;-49
2021/01/17 12:44:26;;;;;;;18.67;15.82;;;;;;;;;;4190880;34;20153;-50
2021/01/17 12:46:52;;;;;;;18.70;16.83;;;;;;;;;;4204790;34;20216;-49
2021/01/17 12:49:18;;;;;;;19.75;15.63;;;;;;;;;;4204472;34;20186;-50
2021/01/17 12:51:44;;;;;;;20.42;16.30;;;;;;;;;;4204854;34;20111;-52
2021/01/17 12:54:11;;;;;;;18.83;15.70;;;;;;;;;;4191792;34;20111;-54
2021/01/17 12:56:37;;;;;;;17.35;15.43;;;;;;;;;;4204401;34;20177;-51
2021/01/17 12:59:03;;;;;;;18.90;15.45;;;;;;;;;;4204312;34;20102;-53
2021/01/17 13:01:29;;;;;;;17.67;15.35;;;;;;;;;;4191446;34;20185;-53
2021/01/17 13:03:55;;;;;;;18.33;15.50;;;;;;;;;;4204277;34;20170;-51
2021/01/17 13:06:21;;;;;;;17.25;15.20;;;;;;;;;;4204323;34;20240;-49
2021/01/17 13:08:47;;;;;;;17.40;15.40;;;;;;;;;;4204281;34;20546;-49
2021/01/17 13:11:14;;;;;;;18.23;15.05;;;;;;;;;;4204305;34;20545;-54
2021/01/17 13:13:41;;;;;;;17.37;15.10;;;;;;;;;;4204300;34;20113;-51
2021/01/17 13:16:13;;;;;;;16.58;14.80;;;;;;;;;;4204168;34;20110;-53
2021/01/17 13:18:39;;;;;;;18.05;14.95;;;;;;;;;;4204426;34;20106;-50
2021/01/17 13:21:05;;;;;;;18.25;16.25;;;;;;;;;;4206237;34;20107;-50
2021/01/17 13:23:31;;;;;;;17.83;15.85;;;;;;;;;;4206357;34;20194;-53
2021/01/17 13:25:57;;;;;;;18.55;16.42;;;;;;;;;;4206238;34;20106;-57
2021/01/17 13:28:24;;;;;;;20.80;16.60;;;;;;;;;;4206252;34;20117;-58
2021/01/17 13:30:50;;;;;;;18.73;15.75;;;;;;;;;;4206187;34;20244;-59
2021/01/17 13:33:16;;;;;;;21.80;16.87;;;;;;;;;;4206492;34;20506;-57
2021/01/17 13:35:52;;;;;;;28.10;25.05;;;;;;;;;;4206120;34;20531;-51
2021/01/17 13:38:19;;;;;;;29.17;26.15;;;;;;;;;;4206422;34;20122;-56
2021/01/17 13:40:46;;;;;;;29.83;26.77;;;;;;;;;;4206142;34;20130;-56
2021/01/17 13:43:12;;;;;;;24.10;21.25;;;;;;;;;;4199081;34;20100;-58
2021/01/17 13:45:38;;;;;;;18.80;16.10;;;;;;;;;;4191304;34;20169;-53
2021/01/17 13:48:05;;;;;;;19.15;15.65;;;;;;;;;;4192496;34;20114;-52
2021/01/17 13:50:31;;;;;;;19.37;15.52;;;;;;;;;;4182971;34;20090;-54
2021/01/17 13:52:57;;;;;;;17.05;15.25;;;;;;;;;;4206175;34;20465;-54
2021/01/17 13:55:23;;;;;;;18.00;15.40;;;;;;;;;;4206296;34;20114;-51
2021/01/17 13:57:49;;;;;;;18.05;15.85;;;;;;;;;;4205860;34;20129;-51
2021/01/17 14:00:19;;;;;;;17.85;15.10;;;;;;;;;;4205918;34;20446;-54
2021/01/17 14:02:46;;;;;;;19.95;15.52;;;;;;;;;;4206305;34;20105;-51
2021/01/17 14:05:12;;;;;;;17.08;15.27;;;;;;;;;;4205971;34;20136;-50
2021/01/17 14:07:38;;;;;;;18.80;15.13;;;;;;;;;;4205889;34;20107;-49
2021/01/17 14:10:05;;;;;;;17.98;16.05;;;;;;;;;;4205815;34;20126;-49
2021/01/17 14:12:31;;;;;;;19.77;15.73;;;;;;;;;;4205843;34;20129;-49
2021/01/17 14:14:57;;;;;;;17.27;15.48;;;;;;;;;;4205857;34;20530;-51
2021/01/17 14:17:23;;;;;;;18.92;15.85;;;;;;;;;;4194726;34;20142;-51
2021/01/17 14:19:49;;;;;;;16.62;14.90;;;;;;;;;;4191974;34;20110;-51
2021/01/17 14:22:15;;;;;;;21.45;15.25;;;;;;;;;;4191958;34;20102;-50
2021/01/17 14:24:41;;;;;;;17.73;15.93;;;;;;;;;;4192221;34;20141;-48
2021/01/17 14:27:08;;;;;;;20.02;16.08;;;;;;;;;;4195882;34;20130;-53
2021/01/17 14:29:34;;;;;;;19.02;16.33;;;;;;;;;;4202947;34;20118;-58
2021/01/17 14:32:02;;;;;;;17.83;15.18;;;;;;;;;;4204977;34;20248;-58
2021/01/17 14:34:28;;;;;;;18.27;15.80;;;;;;;;;;4205119;34;20197;-59